Airfield :
LOGIN :

Register | Disclaimer

   EN    FR    IT 

 










Legend :    VFR   Marginal VFR   IFR   Intensive IFR   Very Intensive IFR
Visi :
Ceiling :
>= 8 km
>= 3000ft
5 to 8 km
1000 to 3000 ft
1500m to 5 km
500 to 1000 ft
800 to 1500m
200 to 500 ft
< 800m
< 200 ft
Symbols :   Thunderstorms  Fog  Heavy snow  Heavy precipitations  Wind > 20 kt
SIGMETs :     Misc.  Thunderstorms  Icing  Turbulence  Mountain Waves  Volcanic Ashes






- Airport Elevation : 580 ft


LFOA - Avord

CURRENT METAR :
  • 141530Z AUTO 29004KT 250V340 CAVOK 24/14 Q1020

EXPIRED METARs :
  • 141500Z AUTO 29004KT 240V340 CAVOK 24/13 Q1021
  • 141430Z AUTO 32005KT 280V010 CAVOK 25/13 Q1021
  • 141400Z AUTO 30003KT 270V350 CAVOK 25/12 Q1021
  • 141330Z AUTO 31005KT 270V360 CAVOK 24/13 Q1022
  • 141300Z AUTO 29004KT 220V350 CAVOK 24/12 Q1022
  • 141230Z AUTO 28007KT 220V320 CAVOK 23/13 Q1023
  • 141200Z AUTO 28007KT 220V330 CAVOK 23/12 Q1023
  • 141130Z AUTO 23005KT 190V280 CAVOK 23/14 Q1023
  • 141100Z AUTO 27005KT 220V330 CAVOK 22/14 Q1024

Expired Forecast.



MET'MAP, your aeronautical weather chart ! - Copyright ORBIFLY December 2007 - Disclaimer

ORBIFLY MET'MAP TEAM :

Programming & Development : Alexandra Zaïnal
Original concept : Baudouin d'Aumeries
Technical & hardware support : Manuel Goepfert
Assistance : Marc-Olivier Méhu




SOURCES & CREDITS :

   NOAA